Time;durP1;ratioP1;P1;durP2;ratioP2;P2;SDS_P1;SDS_P2;PMS_P1;PMS_P2;Temp;Humidity;BMP_temperature;BMP_pressure;BME280_temperature;BME280_humidity;BME280_pressure;Samples;Min_cycle;Max_cycle;Signal;HPM_P1;HPM_P2
2022/04/04 00:01:02;;;;;;;5.57;3.83;;;;;;;;;;5037133;28;20437;-83
2022/04/04 00:03:29;;;;;;;4.90;3.90;;;;;;;;;;5038022;28;20483;-83
2022/04/04 00:05:55;;;;;;;6.03;3.60;;;;;;;;;;5035187;28;20853;-84
2022/04/04 00:08:21;;;;;;;8.15;4.50;;;;;;;;;;5038907;28;20429;-83
2022/04/04 00:10:47;;;;;;;7.47;4.53;;;;;;;;;;5037925;28;20487;-83
2022/04/04 00:13:14;;;;;;;9.02;5.00;;;;;;;;;;5038242;28;20438;-83
2022/04/04 00:15:41;;;;;;;9.23;5.65;;;;;;;;;;5034657;28;20437;-83
2022/04/04 00:18:08;;;;;;;7.95;5.28;;;;;;;;;;5038741;28;20422;-83
2022/04/04 00:20:34;;;;;;;13.05;6.20;;;;;;;;;;5038001;28;20528;-84
2022/04/04 00:23:00;;;;;;;8.02;5.43;;;;;;;;;;5038145;28;20471;-83
2022/04/04 00:25:27;;;;;;;7.22;5.30;;;;;;;;;;5029590;28;20505;-83
2022/04/04 00:27:53;;;;;;;7.93;4.95;;;;;;;;;;5037569;28;20433;-83
2022/04/04 00:30:19;;;;;;;8.80;4.93;;;;;;;;;;5038706;28;20925;-83
2022/04/04 00:32:47;;;;;;;9.10;5.20;;;;;;;;;;5038545;28;20558;-83
2022/04/04 00:35:13;;;;;;;7.13;4.85;;;;;;;;;;5038284;28;20477;-83
2022/04/04 00:37:39;;;;;;;7.45;4.82;;;;;;;;;;5040650;28;20439;-84
2022/04/04 00:40:06;;;;;;;6.97;4.73;;;;;;;;;;5034804;28;20498;-84
2022/04/04 00:42:32;;;;;;;8.57;4.70;;;;;;;;;;5034602;28;20434;-83
2022/04/04 00:44:59;;;;;;;6.97;4.35;;;;;;;;;;5036095;28;20447;-83
2022/04/04 00:47:25;;;;;;;5.60;4.22;;;;;;;;;;5038851;28;20433;-83
2022/04/04 00:49:53;;;;;;;8.48;4.88;;;;;;;;;;5038266;28;20457;-84
2022/04/04 00:52:19;;;;;;;7.30;5.30;;;;;;;;;;5040408;28;20462;-83
2022/04/04 00:54:46;;;;;;;8.55;5.50;;;;;;;;;;5036611;28;20469;-83
2022/04/04 00:57:12;;;;;;;7.80;5.22;;;;;;;;;;5039582;28;20433;-84
2022/04/04 00:59:39;;;;;;;10.85;6.10;;;;;;;;;;5041198;28;20429;-83
2022/04/04 01:02:06;;;;;;;8.70;6.00;;;;;;;;;;5040235;28;20484;-83
2022/04/04 01:04:32;;;;;;;7.60;5.50;;;;;;;;;;5039160;28;21013;-83
2022/04/04 01:07:01;;;;;;;8.85;5.80;;;;;;;;;;5039947;28;20433;-83
2022/04/04 01:09:27;;;;;;;10.05;5.90;;;;;;;;;;5036592;28;20427;-83
2022/04/04 01:12:04;;;;;;;10.33;6.47;;;;;;;;;;5039918;28;20933;-83
2022/04/04 01:14:30;;;;;;;10.00;6.23;;;;;;;;;;5039367;28;20463;-83
2022/04/04 01:16:56;;;;;;;11.93;7.70;;;;;;;;;;5038843;28;20433;-83
2022/04/04 01:19:23;;;;;;;10.60;6.68;;;;;;;;;;5035857;28;20431;-83
2022/04/04 01:21:51;;;;;;;10.48;6.35;;;;;;;;;;5037343;28;21213;-83
2022/04/04 01:24:19;;;;;;;9.75;5.90;;;;;;;;;;5039860;28;20449;-83
2022/04/04 01:26:46;;;;;;;10.65;6.25;;;;;;;;;;5039965;28;20438;-82
2022/04/04 01:29:12;;;;;;;7.63;5.90;;;;;;;;;;5039546;28;20828;-83
2022/04/04 01:31:38;;;;;;;10.18;5.88;;;;;;;;;;5037997;28;20493;-81
2022/04/04 01:34:05;;;;;;;9.25;5.90;;;;;;;;;;5039564;28;21010;-84
2022/04/04 01:36:31;;;;;;;11.27;5.82;;;;;;;;;;5037517;28;20992;-85
2022/04/04 01:38:57;;;;;;;9.88;5.43;;;;;;;;;;5038443;28;20774;-84
2022/04/04 01:41:25;;;;;;;9.50;6.40;;;;;;;;;;5038711;28;20692;-83
2022/04/04 01:43:52;;;;;;;12.57;6.82;;;;;;;;;;5038892;28;20519;-83
2022/04/04 01:46:24;;;;;;;8.18;5.97;;;;;;;;;;5039727;28;20431;-83
2022/04/04 01:48:51;;;;;;;10.52;5.95;;;;;;;;;;5038546;28;20417;-83
2022/04/04 01:51:17;;;;;;;14.10;8.48;;;;;;;;;;5037418;28;20441;-83
2022/04/04 01:53:44;;;;;;;10.85;7.55;;;;;;;;;;5036885;28;20441;-84
2022/04/04 01:56:10;;;;;;;13.95;7.50;;;;;;;;;;5033713;28;20433;-83
2022/04/04 01:58:38;;;;;;;9.87;7.47;;;;;;;;;;5031067;28;20492;-83
2022/04/04 02:01:09;;;;;;;10.48;6.95;;;;;;;;;;5038992;28;20501;-83
2022/04/04 02:03:35;;;;;;;9.52;6.93;;;;;;;;;;5038124;28;20423;-83
2022/04/04 02:06:02;;;;;;;9.65;6.30;;;;;;;;;;5038132;28;20433;-83
2022/04/04 02:08:28;;;;;;;10.25;6.50;;;;;;;;;;5036604;28;20410;-83
2022/04/04 02:10:55;;;;;;;8.43;6.40;;;;;;;;;;5039547;28;20504;-82
2022/04/04 02:13:23;;;;;;;11.05;6.90;;;;;;;;;;5035482;28;20472;-83
2022/04/04 02:15:50;;;;;;;10.40;7.28;;;;;;;;;;5038809;28;20471;-83
2022/04/04 02:18:16;;;;;;;11.20;7.55;;;;;;;;;;5036277;28;20438;-83
2022/04/04 02:20:43;;;;;;;8.80;6.70;;;;;;;;;;5042079;28;20435;-83
2022/04/04 02:23:10;;;;;;;9.98;7.13;;;;;;;;;;5040963;28;20423;-83
2022/04/04 02:25:37;;;;;;;7.53;6.10;;;;;;;;;;5043215;28;20486;-83
2022/04/04 02:28:03;;;;;;;9.75;6.30;;;;;;;;;;5039162;28;20430;-82
2022/04/04 02:30:30;;;;;;;11.05;6.55;;;;;;;;;;5037806;28;20425;-83
2022/04/04 02:32:57;;;;;;;9.57;6.03;;;;;;;;;;5042794;28;20508;-84
2022/04/04 02:35:23;;;;;;;11.52;7.03;;;;;;;;;;5042915;28;20439;-83
2022/04/04 02:37:50;;;;;;;6.90;5.53;;;;;;;;;;5044098;28;20427;-83
2022/04/04 02:40:16;;;;;;;6.63;5.20;;;;;;;;;;5039939;28;20431;-83
2022/04/04 02:42:42;;;;;;;6.95;5.47;;;;;;;;;;5040279;28;20437;-83
2022/04/04 02:45:08;;;;;;;8.43;5.65;;;;;;;;;;5039435;28;20493;-83
2022/04/04 02:47:35;;;;;;;7.07;5.40;;;;;;;;;;5039804;28;20443;-83
2022/04/04 02:50:02;;;;;;;9.68;7.45;;;;;;;;;;5040959;28;20475;-83
2022/04/04 02:52:29;;;;;;;12.23;6.50;;;;;;;;;;5040700;28;20431;-83
2022/04/04 02:54:55;;;;;;;7.05;5.35;;;;;;;;;;5038872;28;20484;-83
2022/04/04 02:57:21;;;;;;;7.68;5.50;;;;;;;;;;5042136;28;20425;-83
2022/04/04 02:59:47;;;;;;;8.63;6.03;;;;;;;;;;5038177;28;20429;-83
2022/04/04 03:02:14;;;;;;;9.45;6.05;;;;;;;;;;5040811;28;20844;-83
2022/04/04 03:04:42;;;;;;;12.73;7.82;;;;;;;;;;5042063;28;20415;-83
2022/04/04 03:07:10;;;;;;;9.30;6.20;;;;;;;;;;5041271;28;20677;-82
2022/04/04 03:09:37;;;;;;;13.43;6.65;;;;;;;;;;5051387;28;20494;-84
2022/04/04 03:12:04;;;;;;;7.95;5.60;;;;;;;;;;5057664;28;20437;-83
2022/04/04 03:14:31;;;;;;;9.30;6.30;;;;;;;;;;5044945;28;20431;-83
2022/04/04 03:16:58;;;;;;;8.70;6.47;;;;;;;;;;5037799;28;20462;-83
2022/04/04 03:19:24;;;;;;;10.13;6.75;;;;;;;;;;5038969;28;20927;-83
2022/04/04 03:21:54;;;;;;;10.55;7.47;;;;;;;;;;5038976;28;20429;-83
2022/04/04 03:24:21;;;;;;;8.82;7.20;;;;;;;;;;5039089;28;20410;-83
2022/04/04 03:26:48;;;;;;;8.90;7.53;;;;;;;;;;5036696;28;20438;-83
2022/04/04 03:29:14;;;;;;;11.10;8.32;;;;;;;;;;5038394;28;20483;-83
2022/04/04 03:31:40;;;;;;;8.88;7.20;;;;;;;;;;5038734;28;21147;-83
2022/04/04 03:34:06;;;;;;;10.38;8.43;;;;;;;;;;5036046;28;20989;-83
2022/04/04 03:36:33;;;;;;;10.55;8.30;;;;;;;;;;5039379;28;20487;-84
2022/04/04 03:38:59;;;;;;;9.80;8.70;;;;;;;;;;5039879;28;20423;-83
2022/04/04 03:41:26;;;;;;;11.93;9.10;;;;;;;;;;5038265;28;20429;-83
2022/04/04 03:43:53;;;;;;;11.73;9.60;;;;;;;;;;5032200;28;20446;-83
2022/04/04 03:46:19;;;;;;;11.48;9.25;;;;;;;;;;5037943;28;20443;-84
2022/04/04 03:48:45;;;;;;;11.45;9.40;;;;;;;;;;5035656;28;20761;-83
2022/04/04 03:51:12;;;;;;;12.80;9.90;;;;;;;;;;5035699;28;20439;-83
2022/04/04 03:53:39;;;;;;;12.23;10.52;;;;;;;;;;5038099;28;20423;-83
2022/04/04 03:56:05;;;;;;;14.90;11.07;;;;;;;;;;5033522;28;20434;-83
2022/04/04 03:58:33;;;;;;;11.93;10.63;;;;;;;;;;5034708;28;20423;-84
2022/04/04 04:00:59;;;;;;;13.18;10.40;;;;;;;;;;5036453;28;20429;-83
2022/04/04 04:03:25;;;;;;;15.25;10.95;;;;;;;;;;5034381;28;20800;-84
2022/04/04 04:06:11;;;;;;;14.48;11.00;;;;;;;;;;5039957;28;20837;-84
2022/04/04 04:08:37;;;;;;;14.18;11.23;;;;;;;;;;5032849;28;20469;-84
2022/04/04 04:11:03;;;;;;;14.50;11.55;;;;;;;;;;5038979;28;20425;-83
2022/04/04 04:13:30;;;;;;;15.25;11.82;;;;;;;;;;5041336;28;20459;-82
2022/04/04 04:15:58;;;;;;;13.73;11.65;;;;;;;;;;5031761;28;20441;-82
2022/04/04 04:18:24;;;;;;;14.80;11.73;;;;;;;;;;5043339;28;20456;-83
2022/04/04 04:20:50;;;;;;;17.65;11.93;;;;;;;;;;5059235;28;20478;-83
2022/04/04 04:23:18;;;;;;;14.35;11.65;;;;;;;;;;5018200;28;22162;-83
2022/04/04 04:25:44;;;;;;;14.25;11.80;;;;;;;;;;5023579;23;20449;-77
2022/04/04 04:28:11;;;;;;;17.65;12.32;;;;;;;;;;4999843;28;20426;-78
2022/04/04 04:30:37;;;;;;;19.23;12.70;;;;;;;;;;5000080;28;20914;-78
2022/04/04 04:33:05;;;;;;;17.75;12.85;;;;;;;;;;5000575;28;20562;-77
2022/04/04 04:35:31;;;;;;;17.52;12.77;;;;;;;;;;4999650;28;20503;-77
2022/04/04 04:37:58;;;;;;;16.17;12.50;;;;;;;;;;4999075;28;20444;-78
2022/04/04 04:40:24;;;;;;;17.50;13.60;;;;;;;;;;4998735;28;20429;-78
2022/04/04 04:42:51;;;;;;;16.00;13.73;;;;;;;;;;4998048;28;20551;-78
2022/04/04 04:45:17;;;;;;;15.40;13.20;;;;;;;;;;4999854;28;20849;-78
2022/04/04 04:47:44;;;;;;;17.50;13.23;;;;;;;;;;5002199;28;20959;-76
2022/04/04 04:50:12;;;;;;;17.57;13.97;;;;;;;;;;5000494;28;20434;-78
2022/04/04 04:52:39;;;;;;;19.90;14.05;;;;;;;;;;5001919;28;20430;-78
2022/04/04 04:55:06;;;;;;;17.50;14.05;;;;;;;;;;5000610;28;20844;-77
2022/04/04 04:57:32;;;;;;;21.25;14.65;;;;;;;;;;4999768;28;20428;-77
2022/04/04 04:59:58;;;;;;;17.70;13.93;;;;;;;;;;4999088;28;20860;-78
2022/04/04 05:02:24;;;;;;;18.40;13.95;;;;;;;;;;5000965;28;20421;-78
2022/04/04 05:04:51;;;;;;;18.00;14.10;;;;;;;;;;4999322;28;20434;-78
2022/04/04 05:07:19;;;;;;;17.35;14.00;;;;;;;;;;4999204;28;20444;-77
2022/04/04 05:09:46;;;;;;;18.35;14.77;;;;;;;;;;4997680;28;20529;-78
2022/04/04 05:12:12;;;;;;;19.60;15.40;;;;;;;;;;4996617;28;20440;-77
2022/04/04 05:14:40;;;;;;;17.27;13.35;;;;;;;;;;4996822;28;20506;-77
2022/04/04 05:17:06;;;;;;;16.10;13.98;;;;;;;;;;4997574;28;20451;-77
2022/04/04 05:19:32;;;;;;;20.53;15.87;;;;;;;;;;4997980;28;20432;-77
2022/04/04 05:21:59;;;;;;;18.48;14.70;;;;;;;;;;5000441;28;20822;-77
2022/04/04 05:24:28;;;;;;;20.98;15.40;;;;;;;;;;4998900;28;20502;-77
2022/04/04 05:26:54;;;;;;;18.05;15.25;;;;;;;;;;4996405;28;20440;-78
2022/04/04 05:29:21;;;;;;;19.92;16.10;;;;;;;;;;4993944;28;20911;-78
2022/04/04 05:31:47;;;;;;;23.70;16.43;;;;;;;;;;4998635;28;20433;-78
2022/04/04 05:34:13;;;;;;;23.08;16.70;;;;;;;;;;4998171;28;20457;-77
2022/04/04 05:36:40;;;;;;;23.42;17.80;;;;;;;;;;5000417;28;20438;-77
2022/04/04 05:39:07;;;;;;;19.55;16.55;;;;;;;;;;4998071;28;20486;-78
2022/04/04 05:41:36;;;;;;;22.27;16.00;;;;;;;;;;4996606;28;20430;-78
2022/04/04 05:44:03;;;;;;;21.95;17.58;;;;;;;;;;4999362;28;20842;-78
2022/04/04 05:46:29;;;;;;;21.45;17.33;;;;;;;;;;5000531;28;20429;-76
2022/04/04 05:48:55;;;;;;;24.95;18.83;;;;;;;;;;4998128;28;20428;-78
2022/04/04 05:51:21;;;;;;;22.10;17.00;;;;;;;;;;4999452;28;20441;-77
2022/04/04 05:53:48;;;;;;;24.60;17.83;;;;;;;;;;4999811;28;20927;-78
2022/04/04 05:56:14;;;;;;;20.98;16.88;;;;;;;;;;4999199;28;20488;-77
2022/04/04 05:58:42;;;;;;;23.50;17.60;;;;;;;;;;4995081;28;20492;-77
2022/04/04 06:01:09;;;;;;;24.05;17.70;;;;;;;;;;5000060;28;20430;-76
2022/04/04 06:03:35;;;;;;;28.92;17.70;;;;;;;;;;4997646;28;20423;-78
2022/04/04 06:06:02;;;;;;;23.75;17.63;;;;;;;;;;4999538;28;20422;-77
2022/04/04 06:08:29;;;;;;;22.80;17.08;;;;;;;;;;4999141;28;20427;-77
2022/04/04 06:10:55;;;;;;;29.73;19.45;;;;;;;;;;4998880;28;20470;-76
2022/04/04 06:13:21;;;;;;;23.48;17.77;;;;;;;;;;4999787;28;20430;-77
2022/04/04 06:15:49;;;;;;;23.27;18.70;;;;;;;;;;5000139;28;20469;-77
2022/04/04 06:18:15;;;;;;;24.35;18.80;;;;;;;;;;4995980;28;20448;-78
2022/04/04 06:20:42;;;;;;;23.33;19.42;;;;;;;;;;5000300;28;20515;-77
2022/04/04 06:23:09;;;;;;;22.85;18.55;;;;;;;;;;5000498;28;20434;-77
2022/04/04 06:25:35;;;;;;;22.83;18.35;;;;;;;;;;5017773;28;20537;-78
2022/04/04 06:28:02;;;;;;;23.42;18.35;;;;;;;;;;5017875;28;20411;-78
2022/04/04 06:30:28;;;;;;;26.83;19.17;;;;;;;;;;5018189;28;20421;-78
2022/04/04 06:32:56;;;;;;;22.35;18.70;;;;;;;;;;5019896;28;20439;-78
2022/04/04 06:35:24;;;;;;;24.42;18.55;;;;;;;;;;5017108;28;20420;-78
2022/04/04 06:37:51;;;;;;;26.35;20.45;;;;;;;;;;5020476;28;20443;-79
2022/04/04 06:40:18;;;;;;;26.43;19.83;;;;;;;;;;5018320;28;20970;-78
2022/04/04 06:42:44;;;;;;;24.27;20.83;;;;;;;;;;5020630;28;20502;-77
2022/04/04 06:45:12;;;;;;;28.42;21.90;;;;;;;;;;5022029;28;20471;-79
2022/04/04 06:47:38;;;;;;;26.27;20.85;;;;;;;;;;5020796;28;20434;-78
2022/04/04 06:50:07;;;;;;;27.85;21.98;;;;;;;;;;5023706;28;20435;-78
2022/04/04 06:52:33;;;;;;;28.13;21.83;;;;;;;;;;5020862;28;20497;-78
2022/04/04 06:54:59;;;;;;;26.35;21.30;;;;;;;;;;5021547;28;20432;-79
2022/04/04 06:57:26;;;;;;;23.52;20.00;;;;;;;;;;5022589;28;20417;-80
2022/04/04 06:59:53;;;;;;;25.33;21.10;;;;;;;;;;5021593;28;20772;-79
2022/04/04 07:02:19;;;;;;;27.02;22.50;;;;;;;;;;5022506;28;20840;-79
2022/04/04 07:04:45;;;;;;;25.47;21.63;;;;;;;;;;5021449;28;20510;-78
2022/04/04 07:07:14;;;;;;;29.10;23.80;;;;;;;;;;5027164;28;20418;-79
2022/04/04 07:09:41;;;;;;;26.85;22.77;;;;;;;;;;5024837;28;20435;-79
2022/04/04 07:12:09;;;;;;;26.73;23.05;;;;;;;;;;5024435;28;20438;-79
2022/04/04 07:14:35;;;;;;;28.00;22.83;;;;;;;;;;5026634;28;20432;-79
2022/04/04 07:17:02;;;;;;;28.83;24.95;;;;;;;;;;5027486;28;20454;-79
2022/04/04 07:19:33;;;;;;;28.13;24.08;;;;;;;;;;5026327;28;20987;-79
2022/04/04 07:21:59;;;;;;;26.52;22.40;;;;;;;;;;5026618;28;20424;-79
2022/04/04 07:24:26;;;;;;;29.08;23.15;;;;;;;;;;5023647;28;20427;-78
2022/04/04 07:26:53;;;;;;;31.20;24.30;;;;;;;;;;5026292;28;20430;-79
2022/04/04 07:29:19;;;;;;;30.25;24.88;;;;;;;;;;5026439;28;20427;-79
2022/04/04 07:31:45;;;;;;;29.93;24.60;;;;;;;;;;5027545;28;20412;-79
2022/04/04 07:34:12;;;;;;;28.40;25.33;;;;;;;;;;5026667;28;20937;-79
2022/04/04 07:36:40;;;;;;;27.00;24.10;;;;;;;;;;5027107;28;20421;-79
2022/04/04 07:39:06;;;;;;;26.52;23.48;;;;;;;;;;5027157;28;20445;-79
2022/04/04 07:41:33;;;;;;;30.20;24.80;;;;;;;;;;5029095;28;20417;-79
2022/04/04 07:44:00;;;;;;;31.50;24.70;;;;;;;;;;5028518;28;20413;-79
2022/04/04 07:46:26;;;;;;;25.90;22.95;;;;;;;;;;5024924;28;20986;-78
2022/04/04 07:48:55;;;;;;;26.65;23.33;;;;;;;;;;5028489;28;20503;-79
2022/04/04 07:51:21;;;;;;;25.92;22.70;;;;;;;;;;5028332;28;20419;-78
2022/04/04 07:53:47;;;;;;;27.50;23.15;;;;;;;;;;5026581;28;20459;-79
2022/04/04 07:56:13;;;;;;;25.58;22.25;;;;;;;;;;5028050;28;20407;-79
2022/04/04 07:58:41;;;;;;;26.70;23.00;;;;;;;;;;5026607;28;20425;-79
2022/04/04 08:01:07;;;;;;;27.75;23.05;;;;;;;;;;5028267;28;20499;-79
2022/04/04 08:03:34;;;;;;;25.58;21.45;;;;;;;;;;5027180;28;20911;-79
2022/04/04 08:06:01;;;;;;;23.05;19.60;;;;;;;;;;5026942;28;20431;-80
2022/04/04 08:08:27;;;;;;;23.25;20.70;;;;;;;;;;5026979;28;20446;-79
2022/04/04 08:10:53;;;;;;;22.48;19.75;;;;;;;;;;5026669;28;20461;-79
2022/04/04 08:13:20;;;;;;;21.70;18.40;;;;;;;;;;5026611;28;20429;-79
2022/04/04 08:15:47;;;;;;;20.52;17.15;;;;;;;;;;5024933;28;20428;-79
2022/04/04 08:18:13;;;;;;;20.73;18.00;;;;;;;;;;5023229;28;20448;-79
2022/04/04 08:20:40;;;;;;;20.90;17.00;;;;;;;;;;5024215;28;20441;-79
2022/04/04 08:23:06;;;;;;;21.13;17.55;;;;;;;;;;5025615;28;20407;-79
2022/04/04 08:25:32;;;;;;;25.42;18.10;;;;;;;;;;5026910;28;20486;-79
2022/04/04 08:27:59;;;;;;;18.83;16.20;;;;;;;;;;5025512;28;20432;-77
2022/04/04 08:30:25;;;;;;;18.30;16.15;;;;;;;;;;5025786;28;20430;-78
2022/04/04 08:32:52;;;;;;;18.80;16.10;;;;;;;;;;5026647;28;20927;-80
2022/04/04 08:35:19;;;;;;;20.30;14.10;;;;;;;;;;5023420;28;20433;-79
2022/04/04 08:37:46;;;;;;;18.38;14.40;;;;;;;;;;5028115;28;20416;-78
2022/04/04 08:40:14;;;;;;;16.92;14.18;;;;;;;;;;5025941;28;20435;-78
2022/04/04 08:42:41;;;;;;;19.15;14.15;;;;;;;;;;5026824;28;20777;-79
2022/04/04 08:45:08;;;;;;;17.75;14.90;;;;;;;;;;5026358;28;20982;-79
2022/04/04 08:47:34;;;;;;;16.83;14.17;;;;;;;;;;5027280;28;20858;-78
2022/04/04 08:50:03;;;;;;;15.15;13.50;;;;;;;;;;5025186;28;20473;-79
2022/04/04 08:52:29;;;;;;;17.80;15.20;;;;;;;;;;5027609;28;20467;-79
2022/04/04 08:54:55;;;;;;;16.48;14.07;;;;;;;;;;5023554;28;20421;-80
2022/04/04 08:57:22;;;;;;;17.27;14.32;;;;;;;;;;5026485;28;20433;-80
2022/04/04 08:59:48;;;;;;;18.75;15.18;;;;;;;;;;5025008;28;20428;-79
2022/04/04 09:02:15;;;;;;;18.67;15.80;;;;;;;;;;5027066;28;20438;-79
2022/04/04 09:04:42;;;;;;;18.58;14.48;;;;;;;;;;5027509;28;20491;-78
2022/04/04 09:07:10;;;;;;;18.30;15.30;;;;;;;;;;5027712;28;20416;-80
2022/04/04 09:09:41;;;;;;;19.10;14.98;;;;;;;;;;5025805;28;20430;-79
2022/04/04 09:12:08;;;;;;;15.93;14.27;;;;;;;;;;5025780;28;20796;-78
2022/04/04 09:14:36;;;;;;;18.58;15.20;;;;;;;;;;5026189;28;20419;-80
2022/04/04 09:17:02;;;;;;;16.83;15.02;;;;;;;;;;5028315;28;20504;-79
2022/04/04 09:19:29;;;;;;;17.20;14.45;;;;;;;;;;5026278;28;20427;-80
2022/04/04 09:21:55;;;;;;;16.10;13.93;;;;;;;;;;5025912;28;20433;-80
2022/04/04 09:24:42;;;;;;;16.67;14.85;;;;;;;;;;5028882;28;20421;-79
2022/04/04 09:27:10;;;;;;;16.70;14.90;;;;;;;;;;5026023;28;20444;-79
2022/04/04 09:29:40;;;;;;;20.33;16.98;;;;;;;;;;5025402;28;20934;-79
2022/04/04 09:32:10;;;;;;;19.80;16.83;;;;;;;;;;5025358;28;20494;-79
2022/04/04 09:34:49;;;;;;;19.92;16.02;;;;;;;;;;5026551;28;20477;-79
2022/04/04 09:37:16;;;;;;;20.40;17.00;;;;;;;;;;5028659;28;20886;-78
2022/04/04 09:39:44;;;;;;;18.33;16.30;;;;;;;;;;5026895;28;20413;-79
2022/04/04 09:42:14;;;;;;;18.60;16.40;;;;;;;;;;5027827;28;20413;-79
2022/04/04 09:44:40;;;;;;;18.52;16.20;;;;;;;;;;5026771;28;20417;-79
2022/04/04 09:47:06;;;;;;;18.67;16.33;;;;;;;;;;5027984;28;20439;-79
2022/04/04 09:49:38;;;;;;;18.95;16.63;;;;;;;;;;5028158;28;20435;-78
2022/04/04 09:52:05;;;;;;;22.48;17.90;;;;;;;;;;5024383;28;20443;-79
2022/04/04 09:54:31;;;;;;;20.83;16.52;;;;;;;;;;5026271;28;20591;-79
2022/04/04 09:57:11;;;;;;;18.38;16.58;;;;;;;;;;5027319;28;20909;-79
2022/04/04 09:59:37;;;;;;;19.05;17.05;;;;;;;;;;5023656;28;20422;-79
2022/04/04 10:02:04;;;;;;;19.02;16.95;;;;;;;;;;5026628;28;20436;-79
2022/04/04 10:04:31;;;;;;;17.48;15.68;;;;;;;;;;5023777;28;20443;-79
2022/04/04 10:06:57;;;;;;;19.73;17.63;;;;;;;;;;5024704;28;20469;-79
2022/04/04 10:09:24;;;;;;;19.85;16.95;;;;;;;;;;5021955;28;20467;-80
2022/04/04 10:11:50;;;;;;;20.42;18.25;;;;;;;;;;5024475;28;20419;-78
2022/04/04 10:14:19;;;;;;;23.75;18.30;;;;;;;;;;5024831;28;20718;-79
2022/04/04 10:16:46;;;;;;;19.83;16.85;;;;;;;;;;5025517;28;20425;-79
2022/04/04 10:19:14;;;;;;;23.40;18.60;;;;;;;;;;5020510;28;20430;-80
2022/04/04 10:21:40;;;;;;;20.60;18.40;;;;;;;;;;5024185;28;20438;-80
2022/04/04 10:24:08;;;;;;;21.10;18.90;;;;;;;;;;5024950;28;20427;-79
2022/04/04 10:26:36;;;;;;;20.97;18.10;;;;;;;;;;5009690;23;20536;-83
2022/04/04 10:29:11;;;;;;;19.53;17.53;;;;;;;;;;4980017;28;20461;-82
2022/04/04 10:31:47;;;;;;;22.13;19.00;;;;;;;;;;4981849;28;20474;-82
2022/04/04 10:34:15;;;;;;;19.50;17.40;;;;;;;;;;4982084;28;20422;-83
2022/04/04 10:36:54;;;;;;;22.48;18.80;;;;;;;;;;4995779;28;20819;-82
2022/04/04 10:39:31;;;;;;;19.50;17.20;;;;;;;;;;5000551;28;20871;-81
2022/04/04 10:41:58;;;;;;;20.02;17.92;;;;;;;;;;5003289;28;20842;-81
2022/04/04 10:44:45;;;;;;;20.05;17.95;;;;;;;;;;5002985;28;21030;-82
2022/04/04 10:47:20;;;;;;;19.53;17.33;;;;;;;;;;5004492;28;20489;-83
2022/04/04 10:49:47;;;;;;;22.70;18.50;;;;;;;;;;5004268;28;20434;-83
2022/04/04 10:52:13;;;;;;;22.88;18.40;;;;;;;;;;5002981;28;20838;-84
2022/04/04 10:54:40;;;;;;;22.80;20.02;;;;;;;;;;5004617;28;20477;-83
2022/04/04 10:57:15;;;;;;;23.33;18.65;;;;;;;;;;5005655;28;20465;-83
2022/04/04 10:59:45;;;;;;;22.40;19.42;;;;;;;;;;5004632;28;20981;-83
2022/04/04 11:02:11;;;;;;;20.02;17.90;;;;;;;;;;5005155;28;20422;-83
2022/04/04 11:07:38;;;;;;;21.33;17.20;;;;;;;;;;5005732;28;20421;-83
2022/04/04 11:07:38;;;;;;;19.13;17.13;;;;;;;;;;5005341;28;20787;-82
2022/04/04 11:10:06;;;;;;;17.17;15.40;;;;;;;;;;5002794;28;20451;-84
2022/04/04 11:12:54;;;;;;;17.42;15.63;;;;;;;;;;5002188;28;20470;-82
2022/04/04 11:15:40;;;;;;;20.88;17.00;;;;;;;;;;5003853;28;20428;-83
2022/04/04 11:18:06;;;;;;;19.20;16.48;;;;;;;;;;5005728;28;20849;-84
2022/04/04 11:20:33;;;;;;;16.75;15.15;;;;;;;;;;5005200;28;20829;-83
2022/04/04 11:23:02;;;;;;;17.15;15.45;;;;;;;;;;5005117;28;20416;-83
2022/04/04 11:25:33;;;;;;;17.90;16.20;;;;;;;;;;5003924;28;20451;-83
2022/04/04 11:28:00;;;;;;;16.90;15.20;;;;;;;;;;5003070;28;20461;-83
2022/04/04 11:30:27;;;;;;;14.73;13.20;;;;;;;;;;5004808;28;20840;-83
2022/04/04 11:32:54;;;;;;;16.60;14.90;;;;;;;;;;5004062;28;20781;-83
2022/04/04 11:35:22;;;;;;;15.48;13.88;;;;;;;;;;5004791;28;20436;-83
2022/04/04 11:37:50;;;;;;;16.33;14.63;;;;;;;;;;5004244;28;20438;-84
2022/04/04 11:40:18;;;;;;;16.08;14.48;;;;;;;;;;5003460;28;20487;-83
2022/04/04 11:42:46;;;;;;;15.98;14.38;;;;;;;;;;5002932;28;20521;-82
2022/04/04 11:45:15;;;;;;;15.50;13.80;;;;;;;;;;5002686;28;20468;-84
2022/04/04 11:47:48;;;;;;;14.60;13.10;;;;;;;;;;5003748;28;20482;-84
2022/04/04 11:50:14;;;;;;;15.48;13.98;;;;;;;;;;5003590;28;20492;-83
2022/04/04 11:52:47;;;;;;;15.23;12.93;;;;;;;;;;5004765;28;20924;-84
2022/04/04 11:55:16;;;;;;;15.75;13.70;;;;;;;;;;5003265;28;20429;-84
2022/04/04 11:57:46;;;;;;;22.48;17.90;;;;;;;;;;5003296;28;20895;-84
2022/04/04 12:00:13;;;;;;;15.80;14.20;;;;;;;;;;5003217;28;20555;-82
2022/04/04 12:02:39;;;;;;;16.13;13.38;;;;;;;;;;5007054;28;20860;-83
2022/04/04 12:05:06;;;;;;;17.08;14.07;;;;;;;;;;5005741;28;20425;-84
2022/04/04 12:07:33;;;;;;;14.90;12.95;;;;;;;;;;5004591;28;20516;-84
2022/04/04 12:10:01;;;;;;;14.05;12.05;;;;;;;;;;5004133;28;20449;-84
2022/04/04 12:12:31;;;;;;;13.57;12.10;;;;;;;;;;5006314;28;20436;-83
2022/04/04 12:14:57;;;;;;;11.40;10.20;;;;;;;;;;5003887;28;20794;-85
2022/04/04 12:17:24;;;;;;;13.07;11.60;;;;;;;;;;5003290;28;20441;-84
2022/04/04 12:19:52;;;;;;;13.57;12.18;;;;;;;;;;5004158;28;20443;-84
2022/04/04 12:25:03;;;;;;;13.00;11.60;;;;;;;;;;5004481;28;20424;-84
2022/04/04 12:27:31;;;;;;;11.32;10.13;;;;;;;;;;5003987;28;20496;-84
2022/04/04 12:29:58;;;;;;;11.85;10.15;;;;;;;;;;5000491;28;20423;-84
2022/04/04 12:32:25;;;;;;;11.85;10.60;;;;;;;;;;5005878;28;20504;-84
2022/04/04 12:34:55;;;;;;;12.20;10.90;;;;;;;;;;5003528;28;20446;-84
2022/04/04 12:37:31;;;;;;;11.20;10.10;;;;;;;;;;5004216;28;20419;-84
2022/04/04 12:40:12;;;;;;;9.57;8.32;;;;;;;;;;5002701;28;20432;-84
2022/04/04 12:42:39;;;;;;;10.90;9.50;;;;;;;;;;5000475;28;20437;-84
2022/04/04 12:45:06;;;;;;;10.95;9.05;;;;;;;;;;5005546;28;20481;-84
2022/04/04 12:47:32;;;;;;;12.93;10.10;;;;;;;;;;5004433;28;20426;-84
2022/04/04 12:50:12;;;;;;;12.60;10.48;;;;;;;;;;5001881;28;20437;-84
2022/04/04 12:52:53;;;;;;;10.10;9.02;;;;;;;;;;5002447;28;20521;-84
2022/04/04 12:55:19;;;;;;;8.93;8.02;;;;;;;;;;5003081;28;20421;-84
2022/04/04 12:57:47;;;;;;;12.98;9.10;;;;;;;;;;5002191;28;20428;-84
2022/04/04 13:00:25;;;;;;;10.80;9.70;;;;;;;;;;5002912;28;20491;-84
2022/04/04 13:02:51;;;;;;;10.82;9.73;;;;;;;;;;5003876;28;20426;-84
2022/04/04 13:05:19;;;;;;;13.10;10.10;;;;;;;;;;5001607;28;20429;-84
2022/04/04 13:07:48;;;;;;;8.43;7.53;;;;;;;;;;5002855;28;20429;-84
2022/04/04 13:10:14;;;;;;;10.60;9.48;;;;;;;;;;5001239;28;20428;-84
2022/04/04 13:12:41;;;;;;;11.00;9.50;;;;;;;;;;5002412;28;20488;-84
2022/04/04 13:15:09;;;;;;;10.55;9.32;;;;;;;;;;5004444;28;20419;-83
2022/04/04 13:17:36;;;;;;;8.43;7.63;;;;;;;;;;5003710;28;20793;-84
2022/04/04 13:20:04;;;;;;;9.90;8.70;;;;;;;;;;5003493;28;20921;-83
2022/04/04 13:22:30;;;;;;;9.77;8.70;;;;;;;;;;5004217;28;20812;-84
2022/04/04 13:24:57;;;;;;;10.80;9.05;;;;;;;;;;5002731;28;20952;-84
2022/04/04 13:27:24;;;;;;;12.90;10.40;;;;;;;;;;5004296;28;20433;-84
2022/04/04 13:29:50;;;;;;;10.52;8.32;;;;;;;;;;5002944;28;20454;-83
2022/04/04 13:32:18;;;;;;;12.85;9.18;;;;;;;;;;5004601;28;20441;-84
2022/04/04 13:34:46;;;;;;;9.65;8.27;;;;;;;;;;5003695;28;20494;-84
2022/04/04 13:37:12;;;;;;;10.32;8.35;;;;;;;;;;5003416;28;20424;-84
2022/04/04 13:39:38;;;;;;;13.32;8.20;;;;;;;;;;5002965;28;20420;-85
2022/04/04 13:42:05;;;;;;;11.43;8.30;;;;;;;;;;5001986;28;20473;-85
2022/04/04 13:44:31;;;;;;;9.82;7.90;;;;;;;;;;5001869;28;20425;-85
2022/04/04 13:46:58;;;;;;;11.73;9.57;;;;;;;;;;5002825;28;20971;-84
2022/04/04 13:49:28;;;;;;;11.32;8.25;;;;;;;;;;5002681;28;20449;-84
2022/04/04 13:51:55;;;;;;;10.03;8.23;;;;;;;;;;5003168;28;20475;-85
2022/04/04 13:54:22;;;;;;;8.77;7.88;;;;;;;;;;5002943;28;20426;-86
2022/04/04 13:56:48;;;;;;;7.60;6.90;;;;;;;;;;5001504;28;20430;-84
2022/04/04 13:59:14;;;;;;;8.02;7.30;;;;;;;;;;5001447;28;20928;-84
2022/04/04 14:01:41;;;;;;;8.00;7.18;;;;;;;;;;5002117;28;20421;-84
2022/04/04 14:04:07;;;;;;;14.30;8.65;;;;;;;;;;5002941;28;20419;-84
2022/04/04 14:06:35;;;;;;;11.93;8.70;;;;;;;;;;5003147;28;20414;-84
2022/04/04 14:09:02;;;;;;;7.07;6.20;;;;;;;;;;5002622;28;20421;-84
2022/04/04 14:11:29;;;;;;;6.45;5.75;;;;;;;;;;5002437;28;20409;-85
2022/04/04 14:13:56;;;;;;;6.18;5.50;;;;;;;;;;5001955;28;20421;-85
2022/04/04 14:16:23;;;;;;;6.00;5.40;;;;;;;;;;5007106;28;20487;-84
2022/04/04 14:18:49;;;;;;;6.30;5.70;;;;;;;;;;5006420;28;20435;-84
2022/04/04 14:21:16;;;;;;;8.52;6.88;;;;;;;;;;5007579;28;20473;-84
2022/04/04 14:23:44;;;;;;;6.07;5.57;;;;;;;;;;5006700;28;20988;-84
2022/04/04 14:26:11;;;;;;;8.77;6.72;;;;;;;;;;5007041;28;20513;-84
2022/04/04 14:28:37;;;;;;;5.95;5.35;;;;;;;;;;5003381;28;20492;-84
2022/04/04 14:31:04;;;;;;;5.82;5.32;;;;;;;;;;5007198;28;20887;-84